Stevens Point, Wisconsin
Current Conditions -  °F | °C
As of 2:55 AM on Friday 24 Oct 2014 (Local Time) from KSTE Reporting Station
Haze Haze  
Wind Chill: 45°   Ceiling: 200
Heat Index: 45°   Visibility: 1mi
Dew Point: 45°   Wind: 0mph
Humidity: 99%   Direction: NA
Pressure: 30.04"   Gusts: NA
Location:  44.52°N, 89.57°W
Report Text: KSTE 240755Z AUTO 00000KT 1SM BR OVC002 07/07 A3004 RMK AO2 P0001 T00710070
Loading
Personal Weather Stations






























Interactive Weather Map New forecast layout! Learn more

10-Day Weather Forecast

Advertisements
Track Severe Weather on mobile